createdAt,value
2023-04-02T00:01:14.196Z,100916.06
2023-04-02T00:03:44.245Z,100913.19
2023-04-02T00:04:25.481Z,100776.94
2023-04-02T00:06:13.840Z,100919.56
2023-04-02T00:08:44.309Z,100927.78
2023-04-02T00:09:41.185Z,100777.72
2023-04-02T00:11:14.548Z,100921.72
2023-04-02T00:13:44.826Z,100931.66
2023-04-02T00:14:56.171Z,100785.28
2023-04-02T00:16:15.177Z,100934.31
2023-04-02T00:18:45.431Z,100935.16
2023-04-02T00:20:11.164Z,100794.84
2023-04-02T00:21:15.693Z,100939.44
2023-04-02T00:23:45.487Z,100938.72
2023-04-02T00:25:26.167Z,100810.00
2023-04-02T00:26:15.813Z,100953.31
2023-04-02T00:28:46.211Z,100959.38
2023-04-02T00:30:41.442Z,100807.47
2023-04-02T00:31:16.044Z,100964.69
2023-04-02T00:33:45.411Z,100960.56
2023-04-02T00:35:57.215Z,100821.88
2023-04-02T00:36:15.548Z,100963.25
2023-04-02T00:38:46.695Z,100972.47
2023-04-02T00:41:12.234Z,100828.16
2023-04-02T00:41:17.445Z,100973.69
2023-04-02T00:43:47.739Z,100971.03
2023-04-02T00:46:17.445Z,100984.34
2023-04-02T00:46:27.277Z,100838.97
2023-04-02T00:48:45.744Z,100984.91
2023-04-02T00:51:15.689Z,100988.78
2023-04-02T00:51:43.131Z,100854.13
2023-04-02T00:53:45.575Z,100998.72
2023-04-02T00:56:15.472Z,100993.41
2023-04-02T00:56:58.521Z,100858.41
2023-04-02T00:58:45.357Z,101010.09
2023-04-02T01:01:15.298Z,101004.06
2023-04-02T01:02:14.203Z,100873.06
2023-04-02T01:03:45.955Z,101024.66
2023-04-02T01:06:16.076Z,101029.25
2023-04-02T01:07:29.153Z,100880.59
2023-04-02T01:08:45.437Z,101030.50
2023-04-02T01:11:14.034Z,101027.84
2023-04-02T01:12:43.884Z,100886.94
2023-04-02T01:13:42.649Z,101031.75
2023-04-02T01:16:11.979Z,101031.75
2023-04-02T01:17:59.138Z,100889.19
2023-04-02T01:18:41.316Z,101030.31
2023-04-02T01:21:11.643Z,101037.56
2023-04-02T01:23:14.493Z,100901.28
2023-04-02T01:23:42.121Z,101048.97
2023-04-02T01:26:11.551Z,101055.50
2023-04-02T01:28:30.150Z,100915.16
2023-04-02T01:28:41.581Z,101059.41
2023-04-02T01:31:11.751Z,101056.75
2023-04-02T01:33:40.259Z,101064.75
2023-04-02T01:33:44.938Z,100907.59
2023-04-02T01:36:09.230Z,101067.22
2023-04-02T01:38:39.490Z,101068.66
2023-04-02T01:39:00.198Z,100925.78
2023-04-02T01:41:09.291Z,101072.56
2023-04-02T01:43:39.298Z,101083.22
2023-04-02T01:44:15.174Z,100927.00
2023-04-02T01:46:09.122Z,101078.34
2023-04-02T01:48:39.132Z,101089.75
2023-04-02T01:49:30.128Z,100938.59
2023-04-02T01:51:14.497Z,101085.66
2023-04-02T01:53:44.462Z,101104.31
2023-04-02T01:54:45.102Z,100945.66
2023-04-02T01:56:14.949Z,101097.75
2023-04-02T01:58:44.490Z,101101.66
2023-04-02T02:00:00.185Z,100954.50
2023-04-02T02:01:13.350Z,101105.56
2023-04-02T02:03:44.463Z,101112.13
2023-04-02T02:05:21.127Z,100969.38
2023-04-02T02:06:14.450Z,101114.78
2023-04-02T02:08:44.857Z,101118.66
2023-04-02T02:10:38.158Z,100979.97
2023-04-02T02:11:13.193Z,101123.97
2023-04-02T02:13:43.072Z,101134.66
2023-04-02T02:15:53.468Z,100987.06
2023-04-02T02:16:13.337Z,101139.97
2023-04-02T02:18:43.236Z,101131.78
2023-04-02T02:21:09.514Z,100998.16
2023-04-02T02:21:13.061Z,101145.13
2023-04-02T02:23:43.377Z,101153.09
2023-04-02T02:26:13.272Z,101169.09
2023-04-02T02:26:25.181Z,101010.72
2023-04-02T02:28:43.243Z,101163.78
2023-04-02T02:31:13.154Z,101166.94
2023-04-02T02:31:41.184Z,101023.13
2023-04-02T02:33:44.351Z,101166.94
2023-04-02T02:36:13.885Z,101174.22
2023-04-02T02:36:56.217Z,101027.91
2023-04-02T02:38:43.227Z,101180.75
2023-04-02T02:41:18.627Z,101188.75
2023-04-02T02:42:11.224Z,101043.03
2023-04-02T02:43:50.928Z,101184.66
2023-04-02T02:46:23.486Z,101189.28
2023-04-02T02:47:26.206Z,101044.28
2023-04-02T02:48:54.088Z,101199.94
2023-04-02T02:51:22.411Z,101192.66
2023-04-02T02:52:44.159Z,101054.13
2023-04-02T02:53:52.914Z,101205.25
2023-04-02T02:56:22.258Z,101215.19
2023-04-02T02:57:59.162Z,101065.72
2023-04-02T02:58:51.216Z,101220.53
2023-04-02T03:01:25.256Z,101225.16
2023-04-02T03:03:20.607Z,101070.78
2023-04-02T03:03:55.035Z,101218.38
2023-04-02T03:06:25.733Z,101221.53
2023-04-02T03:08:40.116Z,101078.06
2023-04-02T03:08:59.340Z,101233.63
2023-04-02T03:11:32.900Z,101238.94
2023-04-02T03:14:00.209Z,101091.94
2023-04-02T03:14:05.221Z,101246.94
2023-04-02T03:16:34.846Z,101242.84
2023-04-02T03:19:03.100Z,101252.09
2023-04-02T03:19:15.197Z,101110.13
2023-04-02T03:21:35.262Z,101257.41
2023-04-02T03:24:05.265Z,101262.75
2023-04-02T03:24:30.206Z,101108.59
2023-04-02T03:26:34.215Z,101250.66
2023-04-02T03:29:04.859Z,101271.97
2023-04-02T03:29:45.205Z,101120.75
2023-04-02T03:31:35.368Z,101276.56
2023-04-02T03:34:05.399Z,101277.31
2023-04-02T03:35:00.152Z,101133.06
2023-04-02T03:36:35.629Z,101282.63
2023-04-02T03:39:05.885Z,101291.13
2023-04-02T03:40:16.147Z,101139.88
2023-04-02T03:41:36.006Z,101295.03
2023-04-02T03:44:05.837Z,101298.91
2023-04-02T03:45:31.128Z,101155.53
2023-04-02T03:46:35.569Z,101310.28
2023-04-02T03:49:03.977Z,101314.19
2023-04-02T03:50:46.133Z,101180.00
2023-04-02T03:51:32.023Z,101323.59
2023-04-02T03:54:01.669Z,101328.94
2023-04-02T03:56:01.225Z,101184.31
2023-04-02T03:56:31.728Z,101338.38
2023-04-02T03:59:02.177Z,101342.25
2023-04-02T04:01:16.155Z,101202.22
2023-04-02T04:01:32.162Z,101347.59
2023-04-02T04:04:02.849Z,101354.38
2023-04-02T04:06:31.501Z,101209.53
2023-04-02T04:06:32.678Z,101363.59
2023-04-02T04:09:02.535Z,101359.47
2023-04-02T04:11:32.779Z,101370.88
2023-04-02T04:11:47.147Z,101219.09
2023-04-02T04:14:03.759Z,101372.06
2023-04-02T04:16:32.427Z,101365.31
2023-04-02T04:17:02.153Z,101220.81
2023-04-02T04:19:00.314Z,101376.69
2023-04-02T04:21:31.518Z,101387.34
2023-04-02T04:22:18.182Z,101239.75
2023-04-02T04:24:07.865Z,101390.00
2023-04-02T04:26:37.152Z,101395.84
2023-04-02T04:27:33.223Z,101251.91
2023-04-02T04:29:06.972Z,101405.78
2023-04-02T04:31:37.351Z,101403.13
2023-04-02T04:32:48.561Z,101263.75
2023-04-02T04:34:07.740Z,101410.41
2023-04-02T04:36:37.866Z,101412.34
2023-04-02T04:38:04.182Z,101278.91
2023-04-02T04:39:12.162Z,101422.78
2023-04-02T04:41:45.632Z,101432.69
2023-04-02T04:43:21.172Z,101287.22
2023-04-02T04:44:16.561Z,101450.16
2023-04-02T04:46:49.241Z,101450.63
2023-04-02T04:48:36.506Z,101311.91
2023-04-02T04:49:19.339Z,101452.09
2023-04-02T04:51:48.769Z,101454.03
2023-04-02T04:53:52.184Z,101323.75
2023-04-02T04:54:18.793Z,101464.69
2023-04-02T04:56:52.287Z,101474.59
2023-04-02T04:59:11.145Z,101329.81
2023-04-02T04:59:22.552Z,101487.94
2023-04-02T05:01:53.913Z,101489.19
2023-04-02T05:04:24.524Z,101487.72
2023-04-02T05:04:27.359Z,101345.94
2023-04-02T05:06:54.855Z,101498.38
2023-04-02T05:09:23.886Z,101502.97
2023-04-02T05:09:44.201Z,101357.78
2023-04-02T05:11:54.658Z,101512.94
2023-04-02T05:14:24.034Z,101517.53
2023-04-02T05:15:00.194Z,101364.38
2023-04-02T05:16:54.916Z,101523.59
2023-04-02T05:19:25.984Z,101531.59
2023-04-02T05:20:16.488Z,101382.50
2023-04-02T05:21:55.332Z,101534.97
2023-04-02T05:24:24.966Z,101535.69
2023-04-02T05:25:34.136Z,101390.84
2023-04-02T05:26:56.028Z,101542.47
2023-04-02T05:29:32.637Z,101541.03
2023-04-02T05:30:49.145Z,101398.41
2023-04-02T05:32:08.028Z,101540.28
2023-04-02T05:34:38.287Z,101550.94
2023-04-02T05:36:06.197Z,101414.56
2023-04-02T05:37:08.301Z,101568.41
2023-04-02T05:39:38.517Z,101562.34
2023-04-02T05:41:26.225Z,101421.63
2023-04-02T05:42:08.337Z,101573.00
2023-04-02T05:44:51.743Z,101582.22
2023-04-02T05:46:45.203Z,101437.53
2023-04-02T05:47:21.737Z,101576.88
2023-04-02T05:49:52.638Z,101586.09
2023-04-02T05:52:03.183Z,101448.63
2023-04-02T05:52:22.498Z,101586.09
2023-04-02T05:54:52.929Z,101597.47
2023-04-02T05:57:18.394Z,101449.88
2023-04-02T05:57:29.568Z,101598.22
2023-04-02T06:00:09.723Z,101602.31
2023-04-02T06:02:34.255Z,101458.25
2023-04-02T06:02:40.724Z,101606.44
2023-04-02T06:05:12.714Z,101617.31
2023-04-02T06:07:43.206Z,101623.63
2023-04-02T06:07:49.186Z,101479.97
2023-04-02T06:10:14.137Z,101625.78
2023-04-02T06:12:45.536Z,101633.00
2023-04-02T06:13:05.233Z,101487.25
2023-04-02T06:15:16.558Z,101638.78
2023-04-02T06:17:47.721Z,101645.59
2023-04-02T06:18:24.525Z,101503.13
2023-04-02T06:20:16.850Z,101650.94
2023-04-02T06:22:47.243Z,101664.50
2023-04-02T06:23:41.137Z,101515.94
2023-04-02T06:25:17.581Z,101663.50
2023-04-02T06:27:49.541Z,101672.44
2023-04-02T06:28:56.336Z,101525.72
2023-04-02T06:30:21.876Z,101676.09
2023-04-02T06:32:52.852Z,101677.53
2023-04-02T06:34:12.151Z,101545.09
2023-04-02T06:35:23.034Z,101693.53
2023-04-02T06:37:58.498Z,101702.97
2023-04-02T06:39:35.194Z,101552.13
2023-04-02T06:40:30.510Z,101705.63
2023-04-02T06:43:04.542Z,101712.44
2023-04-02T06:44:51.177Z,101565.22
2023-04-02T06:45:54.453Z,101712.44
2023-04-02T06:48:44.902Z,101717.03
2023-04-02T06:50:29.146Z,101580.53
2023-04-02T06:51:14.652Z,101726.97
2023-04-02T06:53:44.618Z,101730.84
2023-04-02T06:55:44.449Z,101579.44
2023-04-02T06:56:16.990Z,101728.88
2023-04-02T06:58:46.954Z,101734.75
2023-04-02T07:01:05.271Z,101595.25
2023-04-02T07:01:17.006Z,101733.50
2023-04-02T07:03:47.093Z,101744.44
2023-04-02T07:06:21.978Z,101755.09
2023-04-02T07:06:24.487Z,101604.03
2023-04-02T07:08:52.771Z,101755.09
2023-04-02T07:11:24.298Z,101769.34
2023-04-02T07:11:42.179Z,101623.72
2023-04-02T07:13:57.060Z,101772.25
2023-04-02T07:16:27.623Z,101789.00
2023-04-02T07:16:59.210Z,101635.31
2023-04-02T07:18:57.621Z,101783.66
2023-04-02T07:21:27.943Z,101799.66
2023-04-02T07:22:15.136Z,101637.25
2023-04-02T07:23:58.097Z,101790.44
2023-04-02T07:26:27.081Z,101801.09
2023-04-02T07:27:37.480Z,101663.13
2023-04-02T07:28:56.490Z,101806.44
2023-04-02T07:31:26.852Z,101813.22
2023-04-02T07:32:53.570Z,101675.00
2023-04-02T07:33:57.265Z,101821.47
2023-04-02T07:36:27.692Z,101835.03
2023-04-02T07:38:08.915Z,101682.53
2023-04-02T07:38:56.701Z,101836.50
2023-04-02T07:41:26.122Z,101838.66
2023-04-02T07:43:24.223Z,101691.59
2023-04-02T07:43:56.498Z,101844.75
2023-04-02T07:46:26.362Z,101841.06
2023-04-02T07:48:39.173Z,101693.84
2023-04-02T07:48:56.200Z,101846.63
2023-04-02T07:51:25.515Z,101846.16
2023-04-02T07:53:54.153Z,101710.41
2023-04-02T07:53:55.930Z,101854.88
2023-04-02T07:56:26.242Z,101853.91
2023-04-02T07:58:58.891Z,101847.53
2023-04-02T07:59:08.926Z,101707.63
2023-04-02T08:01:29.186Z,101851.94
2023-04-02T08:03:59.575Z,101863.06
2023-04-02T08:04:24.184Z,101702.28
2023-04-02T08:06:29.942Z,101861.34
2023-04-02T08:09:00.373Z,101858.19
2023-04-02T08:09:39.171Z,101711.84
2023-04-02T08:11:31.838Z,101873.22
2023-04-02T08:14:02.289Z,101874.66
2023-04-02T08:14:54.184Z,101726.41
2023-04-02T08:16:32.135Z,101880.75
2023-04-02T08:19:02.472Z,101884.38
2023-04-02T08:20:09.539Z,101741.50
2023-04-02T08:21:32.865Z,101896.47
2023-04-02T08:24:02.801Z,101889.44
2023-04-02T08:25:25.191Z,101751.81
2023-04-02T08:26:31.190Z,101896.94
2023-04-02T08:28:59.913Z,101894.03
2023-04-02T08:30:40.638Z,101761.09
2023-04-02T08:31:30.248Z,101910.03
2023-04-02T08:34:00.702Z,101907.16
2023-04-02T08:35:55.993Z,101764.81
2023-04-02T08:36:30.341Z,101925.38
2023-04-02T08:39:00.223Z,101919.31
2023-04-02T08:41:11.155Z,101777.13
2023-04-02T08:41:29.094Z,101937.72
2023-04-02T08:43:58.446Z,101937.00
2023-04-02T08:46:26.262Z,101789.47
2023-04-02T08:46:28.862Z,101941.59
2023-04-02T08:48:58.792Z,101948.41
2023-04-02T08:51:28.137Z,101951.06
2023-04-02T08:51:41.218Z,101799.78
2023-04-02T08:53:58.501Z,101965.63
2023-04-02T08:56:28.817Z,101974.09
2023-04-02T08:56:56.242Z,101819.88
2023-04-02T08:58:59.088Z,101975.34
2023-04-02T09:01:29.404Z,101976.75
2023-04-02T09:02:11.208Z,101830.16
2023-04-02T09:03:59.754Z,101984.75
2023-04-02T09:06:30.059Z,101994.25
2023-04-02T09:07:26.244Z,101839.16
2023-04-02T09:09:00.403Z,102001.03
2023-04-02T09:11:30.810Z,101999.84
2023-04-02T09:12:42.254Z,101841.63
2023-04-02T09:14:01.088Z,102007.84
2023-04-02T09:16:31.374Z,101995.91
2023-04-02T09:17:59.672Z,101849.84
2023-04-02T09:19:01.691Z,101995.91
2023-04-02T09:21:32.128Z,102003.47
2023-04-02T09:23:14.956Z,101858.81
2023-04-02T09:24:03.914Z,102010.25
2023-04-02T09:26:33.973Z,102011.19
2023-04-02T09:28:29.996Z,101867.75
2023-04-02T09:29:03.117Z,102015.31
2023-04-02T09:31:31.900Z,102031.34
2023-04-02T09:33:45.215Z,101883.91
2023-04-02T09:34:01.353Z,102028.88
2023-04-02T09:36:31.762Z,102021.13
2023-04-02T09:39:00.212Z,101885.34
2023-04-02T09:39:01.872Z,102030.81
2023-04-02T09:41:29.920Z,102040.03
2023-04-02T09:43:58.606Z,102045.38
2023-04-02T09:44:14.967Z,101904.09
2023-04-02T09:46:29.001Z,102052.66
2023-04-02T09:48:59.343Z,102054.53
2023-04-02T09:49:30.171Z,101911.91
2023-04-02T09:51:29.394Z,102066.16
2023-04-02T09:53:57.638Z,102061.28
2023-04-02T09:54:45.247Z,101907.25
2023-04-02T09:56:26.814Z,102061.06
2023-04-02T09:58:55.455Z,102056.91
2023-04-02T10:00:00.528Z,101917.59
2023-04-02T10:01:25.857Z,102074.34
2023-04-02T10:03:56.328Z,102077.25
2023-04-02T10:05:30.110Z,101920.22
2023-04-02T10:06:26.609Z,102064.03
2023-04-02T10:08:56.861Z,102074.81
2023-04-02T10:10:54.137Z,101924.44
2023-04-02T10:11:30.954Z,102073.16
2023-04-02T10:14:07.145Z,102081.91
2023-04-02T10:16:09.194Z,101941.97
2023-04-02T10:16:37.514Z,102097.47
2023-04-02T10:19:07.558Z,102097.16
2023-04-02T10:21:24.221Z,101941.69
2023-04-02T10:21:37.878Z,102097.13
2023-04-02T10:24:07.728Z,102095.56
2023-04-02T10:26:36.989Z,102104.75
2023-04-02T10:26:39.230Z,101952.75
2023-04-02T10:29:07.180Z,102106.41
2023-04-02T10:31:37.545Z,102108.19
2023-04-02T10:31:54.190Z,101955.69
2023-04-02T10:34:07.386Z,102102.09
2023-04-02T10:36:37.855Z,102108.25
2023-04-02T10:37:09.183Z,101957.59
2023-04-02T10:39:07.625Z,102107.56
2023-04-02T10:41:36.879Z,102114.56
2023-04-02T10:42:23.954Z,101952.97
2023-04-02T10:44:19.056Z,102112.28
2023-04-02T10:46:50.295Z,102103.44
2023-04-02T10:47:39.305Z,101952.97
2023-04-02T10:49:18.596Z,102097.00
2023-04-02T10:51:48.042Z,102112.84
2023-04-02T10:52:56.527Z,101966.22
2023-04-02T10:54:18.567Z,102116.63
2023-04-02T10:56:51.202Z,102120.03
2023-04-02T10:58:11.953Z,101970.13
2023-04-02T10:59:21.861Z,102121.88
2023-04-02T11:01:52.268Z,102116.41
2023-04-02T11:03:27.280Z,101976.13
2023-04-02T11:04:22.528Z,102121.78
2023-04-02T11:06:58.110Z,102125.69
2023-04-02T11:08:42.213Z,101969.50
2023-04-02T11:09:32.590Z,102129.44
2023-04-02T11:12:02.369Z,102130.69
2023-04-02T11:13:57.223Z,101976.75
2023-04-02T11:14:31.410Z,102112.66
2023-04-02T11:16:59.532Z,102130.31
2023-04-02T11:19:12.180Z,101985.53
2023-04-02T11:19:28.347Z,102134.28
2023-04-02T11:22:00.802Z,102140.94
2023-04-02T11:24:27.170Z,101997.34
2023-04-02T11:24:32.390Z,102150.47
2023-04-02T11:27:02.768Z,102147.63
2023-04-02T11:29:33.593Z,102148.69
2023-04-02T11:29:42.464Z,101997.00
2023-04-02T11:32:03.981Z,102152.16
2023-04-02T11:34:34.307Z,102154.16
2023-04-02T11:35:06.521Z,102003.69
2023-04-02T11:37:04.296Z,102159.97
2023-04-02T11:39:33.070Z,102161.94
2023-04-02T11:40:22.219Z,102009.78
2023-04-02T11:42:01.950Z,102161.97
2023-04-02T11:44:32.295Z,102162.84
2023-04-02T11:47:02.668Z,102166.47
2023-04-02T11:49:33.202Z,102177.47
2023-04-02T11:50:53.249Z,102015.63
2023-04-02T11:52:11.442Z,102170.63
2023-04-02T11:54:42.794Z,102169.69
2023-04-02T11:56:08.169Z,102021.34
2023-04-02T11:57:12.372Z,102171.31
2023-04-02T11:59:42.785Z,102166.13
2023-04-02T12:01:22.939Z,102021.06
2023-04-02T12:02:13.100Z,102178.31
2023-04-02T12:04:42.940Z,102182.13
2023-04-02T12:06:37.952Z,102035.84
2023-04-02T12:07:11.839Z,102185.56
2023-04-02T12:09:42.211Z,102180.16
2023-04-02T12:11:53.211Z,102037.91
2023-04-02T12:12:11.633Z,102181.59
2023-04-02T12:14:41.979Z,102192.03
2023-04-02T12:17:09.914Z,102041.03
2023-04-02T12:17:12.665Z,102194.91
2023-04-02T12:19:43.185Z,102184.47
2023-04-02T12:22:13.578Z,102199.06
2023-04-02T12:22:25.515Z,102043.19
2023-04-02T12:24:43.905Z,102206.78
2023-04-02T12:27:13.804Z,102216.84
2023-04-02T12:27:41.171Z,102056.28
2023-04-02T12:29:43.212Z,102224.78
2023-04-02T12:32:13.581Z,102228.69
2023-04-02T12:32:56.554Z,102067.06
2023-04-02T12:34:42.096Z,102226.34
2023-04-02T12:37:11.376Z,102230.69
2023-04-02T12:38:12.175Z,102078.31
2023-04-02T12:39:41.666Z,102228.38
2023-04-02T12:42:11.939Z,102231.44
2023-04-02T12:43:27.229Z,102075.28
2023-04-02T12:44:42.284Z,102223.31
2023-04-02T12:47:12.236Z,102215.41
2023-04-02T12:48:41.959Z,102070.66
2023-04-02T12:49:41.314Z,102220.47
2023-04-02T12:52:14.212Z,102238.09
2023-04-02T12:53:57.192Z,102068.53
2023-04-02T12:54:42.952Z,102228.34
2023-04-02T12:57:11.255Z,102235.81
2023-04-02T12:59:12.170Z,102081.28
2023-04-02T12:59:40.761Z,102238.00
2023-04-02T13:02:11.077Z,102229.25
2023-04-02T13:04:27.211Z,102079.13
2023-04-02T13:04:41.413Z,102235.44
2023-04-02T13:07:11.839Z,102234.81
2023-04-02T13:09:41.859Z,102237.88
2023-04-02T13:09:41.973Z,102084.66
2023-04-02T13:12:10.557Z,102239.94
2023-04-02T13:14:40.843Z,102235.91
2023-04-02T13:14:57.010Z,102074.06
2023-04-02T13:17:11.228Z,102248.84
2023-04-02T13:19:41.443Z,102242.34
2023-04-02T13:20:12.205Z,102075.88
2023-04-02T13:22:11.716Z,102240.91
2023-04-02T13:24:41.368Z,102246.16
2023-04-02T13:25:27.217Z,102088.97
2023-04-02T13:27:10.137Z,102252.50
2023-04-02T13:29:40.484Z,102253.00
2023-04-02T13:30:42.580Z,102086.66
2023-04-02T13:32:10.765Z,102252.03
2023-04-02T13:34:40.724Z,102239.97
2023-04-02T13:35:58.240Z,102086.38
2023-04-02T13:37:10.126Z,102246.84
2023-04-02T13:39:40.419Z,102246.13
2023-04-02T13:41:13.179Z,102085.28
2023-04-02T13:42:10.343Z,102248.72
2023-04-02T13:44:40.678Z,102248.91
2023-04-02T13:46:28.031Z,102084.25
2023-04-02T13:47:11.010Z,102251.25
2023-04-02T13:49:40.894Z,102250.69
2023-04-02T13:51:43.166Z,102091.94
2023-04-02T13:52:11.139Z,102251.25
2023-04-02T13:54:41.509Z,102260.22
2023-04-02T13:56:58.310Z,102088.84
2023-04-02T13:57:11.316Z,102262.41
2023-04-02T13:59:40.701Z,102254.03
2023-04-02T14:02:10.925Z,102258.59
2023-04-02T14:02:13.565Z,102087.16
2023-04-02T14:04:41.393Z,102268.94
2023-04-02T14:07:11.816Z,102264.38
2023-04-02T14:07:28.950Z,102102.72
2023-04-02T14:09:41.746Z,102272.19
2023-04-02T14:12:11.760Z,102276.88
2023-04-02T14:12:44.565Z,102102.56
2023-04-02T14:14:40.495Z,102279.31
2023-04-02T14:17:10.615Z,102279.50
2023-04-02T14:18:00.320Z,102106.56
2023-04-02T14:19:38.812Z,102286.19
2023-04-02T14:22:08.175Z,102284.56
2023-04-02T14:23:15.204Z,102117.31
2023-04-02T14:24:38.546Z,102285.09
2023-04-02T14:27:08.120Z,102283.94
2023-04-02T14:28:30.278Z,102113.03
2023-04-02T14:29:36.390Z,102294.22
2023-04-02T14:32:05.329Z,102291.94
2023-04-02T14:33:45.226Z,102127.63
2023-04-02T14:34:34.461Z,102297.72
2023-04-02T14:37:02.739Z,102295.81
2023-04-02T14:39:00.200Z,102137.03
2023-04-02T14:39:33.048Z,102301.38
2023-04-02T14:42:03.413Z,102299.38
2023-04-02T14:44:15.623Z,102130.25
2023-04-02T14:44:33.772Z,102294.06
2023-04-02T14:47:04.142Z,102293.81
2023-04-02T14:49:34.497Z,102300.69
2023-04-02T14:50:09.181Z,102137.63
2023-04-02T14:52:04.746Z,102303.66
2023-04-02T14:54:35.359Z,102318.34
2023-04-02T14:55:24.221Z,102149.00
2023-04-02T14:57:04.936Z,102312.78
2023-04-02T14:59:35.243Z,102310.38
2023-04-02T15:00:39.191Z,102152.72
2023-04-02T15:02:05.621Z,102327.41
2023-04-02T15:04:35.974Z,102321.91
2023-04-02T15:05:54.618Z,102164.56
2023-04-02T15:07:06.349Z,102315.56
2023-04-02T15:09:35.768Z,102322.72
2023-04-02T15:11:10.171Z,102163.63
2023-04-02T15:12:06.031Z,102319.41
2023-04-02T15:14:35.781Z,102327.63
2023-04-02T15:16:25.232Z,102168.72
2023-04-02T15:17:04.880Z,102314.50
2023-04-02T15:19:33.587Z,102319.63
2023-04-02T15:21:49.809Z,102160.84
2023-04-02T15:22:08.133Z,102318.69
2023-04-02T15:24:39.183Z,102330.13
2023-04-02T15:27:14.718Z,102338.34
2023-04-02T15:27:21.943Z,102165.63
2023-04-02T15:29:52.378Z,102338.31
2023-04-02T15:32:22.616Z,102341.91
2023-04-02T15:32:40.273Z,102176.22
2023-04-02T15:34:52.938Z,102331.31
2023-04-02T15:37:23.442Z,102329.00
2023-04-02T15:37:55.204Z,102171.78
2023-04-02T15:39:53.760Z,102335.44
2023-04-02T15:42:24.186Z,102340.16
2023-04-02T15:43:10.258Z,102183.94
2023-04-02T15:44:54.528Z,102340.75
2023-04-02T15:47:24.813Z,102341.13
2023-04-02T15:48:25.198Z,102180.41
2023-04-02T15:49:55.135Z,102354.38
2023-04-02T15:52:25.665Z,102354.19
2023-04-02T15:53:40.215Z,102193.19
2023-04-02T15:54:55.075Z,102361.56
2023-04-02T15:57:24.908Z,102357.53
2023-04-02T15:59:08.612Z,102199.47
2023-04-02T15:59:55.319Z,102366.84
2023-04-02T16:02:24.821Z,102358.38
2023-04-02T16:04:24.284Z,102198.56
2023-04-02T16:04:53.829Z,102361.81
2023-04-02T16:07:24.246Z,102355.28
2023-04-02T16:09:39.233Z,102198.09
2023-04-02T16:09:54.285Z,102359.47
2023-04-02T16:12:23.079Z,102361.69
2023-04-02T16:14:52.373Z,102355.88
2023-04-02T16:14:54.215Z,102202.41
2023-04-02T16:17:25.338Z,102367.38
2023-04-02T16:19:55.734Z,102362.56
2023-04-02T16:20:09.253Z,102198.56
2023-04-02T16:22:24.649Z,102372.13
2023-04-02T16:24:57.253Z,102373.63
2023-04-02T16:25:24.227Z,102204.56
2023-04-02T16:27:25.926Z,102384.09
2023-04-02T16:29:55.961Z,102382.19
2023-04-02T16:30:39.369Z,102220.41
2023-04-02T16:32:24.724Z,102381.75
2023-04-02T16:34:57.583Z,102388.09
2023-04-02T16:35:53.961Z,102229.81
2023-04-02T16:37:27.971Z,102389.06
2023-04-02T16:39:57.867Z,102393.47
2023-04-02T16:41:09.389Z,102238.09
2023-04-02T16:42:27.230Z,102403.25
2023-04-02T16:44:57.246Z,102400.31
2023-04-02T16:46:38.255Z,102243.50
2023-04-02T16:47:25.997Z,102405.22
2023-04-02T16:49:56.301Z,102407.66
2023-04-02T16:51:55.520Z,102250.59
2023-04-02T16:52:24.813Z,102406.72
2023-04-02T16:54:53.304Z,102411.13
2023-04-02T16:57:11.477Z,102260.13
2023-04-02T16:57:22.106Z,102417.47
2023-04-02T16:59:52.487Z,102425.28
2023-04-02T17:02:22.846Z,102418.19
2023-04-02T17:02:27.346Z,102256.91
2023-04-02T17:04:52.801Z,102423.34
2023-04-02T17:07:21.513Z,102424.09
2023-04-02T17:07:43.200Z,102261.66
2023-04-02T17:09:51.596Z,102429.97
2023-04-02T17:12:19.599Z,102426.31
2023-04-02T17:12:58.216Z,102270.75
2023-04-02T17:14:48.290Z,102448.69
2023-04-02T17:17:18.179Z,102445.06
2023-04-02T17:18:13.219Z,102276.91
2023-04-02T17:19:47.627Z,102445.31
2023-04-02T17:22:17.611Z,102451.66
2023-04-02T17:23:28.275Z,102300.59
2023-04-02T17:24:46.314Z,102454.56
2023-04-02T17:27:16.096Z,102459.22
2023-04-02T17:28:43.522Z,102297.38
2023-04-02T17:29:45.476Z,102468.22
2023-04-02T17:32:14.427Z,102470.69
2023-04-02T17:33:59.250Z,102305.22
2023-04-02T17:34:43.684Z,102466.31
2023-04-02T17:37:13.559Z,102470.94
2023-04-02T17:39:14.185Z,102317.38
2023-04-02T17:39:42.958Z,102469.94
2023-04-02T17:42:13.006Z,102475.06
2023-04-02T17:44:29.174Z,102318.47
2023-04-02T17:44:41.789Z,102472.16
2023-04-02T17:47:10.872Z,102479.94
2023-04-02T17:49:39.548Z,102484.56
2023-04-02T17:49:44.607Z,102328.28
2023-04-02T17:52:09.858Z,102487.50
2023-04-02T17:54:40.096Z,102492.63
2023-04-02T17:55:00.382Z,102331.06
2023-04-02T17:57:10.444Z,102492.63
2023-04-02T17:59:41.058Z,102499.41
2023-04-02T18:00:15.198Z,102340.47
2023-04-02T18:02:10.586Z,102507.44
2023-04-02T18:04:40.901Z,102506.00
2023-04-02T18:05:30.291Z,102352.34
2023-04-02T18:07:09.899Z,102513.78
2023-04-02T18:09:39.749Z,102521.56
2023-04-02T18:10:45.308Z,102363.72
2023-04-02T18:12:09.165Z,102522.78
2023-04-02T18:14:39.600Z,102525.19
2023-04-02T18:16:00.019Z,102372.81
2023-04-02T18:17:08.963Z,102528.63
2023-04-02T18:19:39.382Z,102534.22
2023-04-02T18:21:15.252Z,102380.19
2023-04-02T18:22:12.700Z,102537.88
2023-04-02T18:24:43.328Z,102539.09
2023-04-02T18:26:30.187Z,102386.06
2023-04-02T18:27:12.777Z,102545.63
2023-04-02T18:29:41.564Z,102542.00
2023-04-02T18:31:45.766Z,102393.16
2023-04-02T18:32:09.870Z,102549.78
2023-04-02T18:34:41.697Z,102548.34
2023-04-02T18:37:00.952Z,102400.97
2023-04-02T18:37:10.782Z,102550.00
2023-04-02T18:39:40.632Z,102558.53
2023-04-02T18:42:09.466Z,102567.03
2023-04-02T18:42:16.221Z,102406.84
2023-04-02T18:44:38.248Z,102570.91
2023-04-02T18:47:09.129Z,102569.47
2023-04-02T18:47:31.590Z,102415.16
2023-04-02T18:49:38.818Z,102577.22
2023-04-02T18:52:08.431Z,102570.47
2023-04-02T18:52:47.184Z,102421.47
2023-04-02T18:54:38.055Z,102579.66
2023-04-02T18:57:06.722Z,102582.84
2023-04-02T18:58:02.325Z,102424.25
2023-04-02T18:59:37.721Z,102579.41
2023-04-02T19:02:07.934Z,102589.88
2023-04-02T19:03:18.657Z,102429.78
2023-04-02T19:04:36.612Z,102589.16
2023-04-02T19:07:06.970Z,102585.53
2023-04-02T19:08:35.006Z,102445.19
2023-04-02T19:09:37.395Z,102596.94
2023-04-02T19:12:08.262Z,102599.88
2023-04-02T19:13:50.210Z,102452.28
2023-04-02T19:14:37.906Z,102605.94
2023-04-02T19:17:07.742Z,102610.09
2023-04-02T19:19:05.246Z,102456.28
2023-04-02T19:19:37.062Z,102618.09
2023-04-02T19:22:06.923Z,102623.19
2023-04-02T19:24:20.035Z,102475.69
2023-04-02T19:24:36.312Z,102629.72